createdAt,value
2018-08-23T00:00:52.001Z,975.62
2018-08-23T00:01:52.248Z,975.63
2018-08-23T00:02:52.494Z,975.61
2018-08-23T00:03:52.732Z,975.61
2018-08-23T00:04:52.980Z,975.61
2018-08-23T00:05:53.222Z,975.62
2018-08-23T00:06:53.467Z,975.56
2018-08-23T00:07:53.714Z,975.58
2018-08-23T00:08:53.953Z,975.55
2018-08-23T00:09:54.196Z,975.51
2018-08-23T00:10:54.439Z,975.51
2018-08-23T00:11:54.690Z,975.52
2018-08-23T00:12:54.925Z,975.48
2018-08-23T00:13:55.234Z,975.49
2018-08-23T00:14:55.410Z,975.51
2018-08-23T00:15:55.671Z,975.49
2018-08-23T00:16:55.901Z,975.46
2018-08-23T00:17:56.148Z,975.42
2018-08-23T00:18:56.389Z,975.44
2018-08-23T00:19:56.623Z,975.42
2018-08-23T00:20:56.868Z,975.44
2018-08-23T00:21:57.110Z,975.43
2018-08-23T00:22:57.355Z,975.49
2018-08-23T00:23:57.598Z,975.43
2018-08-23T00:24:57.841Z,975.45
2018-08-23T00:25:58.088Z,975.40
2018-08-23T00:26:58.341Z,975.39
2018-08-23T00:27:58.572Z,975.37
2018-08-23T00:28:58.816Z,975.37
2018-08-23T00:29:59.058Z,975.36
2018-08-23T00:30:59.304Z,975.34
2018-08-23T00:31:59.540Z,975.33
2018-08-23T00:32:59.782Z,975.31
2018-08-23T00:34:00.027Z,975.30
2018-08-23T00:35:00.266Z,975.27
2018-08-23T00:36:00.501Z,975.28
2018-08-23T00:37:00.742Z,975.28
2018-08-23T00:38:00.984Z,975.28
2018-08-23T00:39:01.226Z,975.29
2018-08-23T00:40:01.469Z,975.26
2018-08-23T00:41:01.712Z,975.30
2018-08-23T00:42:01.954Z,975.28
2018-08-23T00:43:02.197Z,975.31
2018-08-23T00:44:02.439Z,975.31
2018-08-23T00:45:02.682Z,975.29
2018-08-23T00:46:02.925Z,975.31
2018-08-23T00:47:03.167Z,975.27
2018-08-23T00:48:03.410Z,975.32
2018-08-23T00:49:03.653Z,975.33
2018-08-23T00:50:03.897Z,975.28
2018-08-23T00:51:04.139Z,975.32
2018-08-23T00:52:04.381Z,975.32
2018-08-23T00:53:04.622Z,975.30
2018-08-23T00:54:04.879Z,975.32
2018-08-23T00:55:05.112Z,975.29
2018-08-23T00:56:05.347Z,975.29
2018-08-23T00:57:05.588Z,975.27
2018-08-23T00:58:05.845Z,975.29
2018-08-23T00:59:06.074Z,975.28
2018-08-23T01:00:06.315Z,975.26
2018-08-23T01:01:06.553Z,975.29
2018-08-23T01:02:06.796Z,975.29
2018-08-23T01:03:07.034Z,975.26
2018-08-23T01:04:07.282Z,975.31
2018-08-23T01:05:07.523Z,975.34
2018-08-23T01:06:07.752Z,975.32
2018-08-23T01:07:07.997Z,975.32
2018-08-23T01:08:08.240Z,975.32
2018-08-23T01:09:08.476Z,975.29
2018-08-23T01:10:08.717Z,975.31
2018-08-23T01:11:08.954Z,975.32
2018-08-23T01:12:09.201Z,975.32
2018-08-23T01:13:09.445Z,975.28
2018-08-23T01:14:09.682Z,975.29
2018-08-23T01:15:09.917Z,975.27
2018-08-23T01:16:10.164Z,975.31
2018-08-23T01:17:10.464Z,975.31
2018-08-23T01:18:10.650Z,975.31
2018-08-23T01:19:10.893Z,975.33
2018-08-23T01:20:11.129Z,975.29
2018-08-23T01:21:11.373Z,975.26
2018-08-23T01:22:11.616Z,975.26
2018-08-23T01:23:11.858Z,975.25
2018-08-23T01:24:12.095Z,975.25
2018-08-23T01:25:12.329Z,975.24
2018-08-23T01:26:12.576Z,975.24
2018-08-23T01:27:12.815Z,975.25
2018-08-23T01:28:13.059Z,975.26
2018-08-23T01:29:13.299Z,975.24
2018-08-23T01:30:13.541Z,975.26
2018-08-23T01:31:13.784Z,975.28
2018-08-23T01:32:14.027Z,975.22
2018-08-23T01:33:14.267Z,975.21
2018-08-23T01:34:14.517Z,975.19
2018-08-23T01:35:14.750Z,975.21
2018-08-23T01:36:14.993Z,975.20
2018-08-23T01:37:15.237Z,975.21
2018-08-23T01:38:15.479Z,975.19
2018-08-23T01:39:15.712Z,975.21
2018-08-23T01:40:15.955Z,975.18
2018-08-23T01:41:16.199Z,975.15
2018-08-23T01:42:16.447Z,975.17
2018-08-23T01:43:16.683Z,975.14
2018-08-23T01:44:16.923Z,975.11
2018-08-23T01:45:17.166Z,975.11
2018-08-23T01:46:17.408Z,975.07
2018-08-23T01:47:17.646Z,975.08
2018-08-23T01:48:17.892Z,975.11
2018-08-23T01:49:18.131Z,975.12
2018-08-23T01:50:18.387Z,975.14
2018-08-23T01:51:18.630Z,975.10
2018-08-23T01:52:18.852Z,975.08
2018-08-23T01:53:19.113Z,975.07
2018-08-23T01:54:19.337Z,975.04
2018-08-23T01:55:19.580Z,975.05
2018-08-23T01:56:19.830Z,975.05
2018-08-23T01:57:20.093Z,975.06
2018-08-23T01:58:20.327Z,975.05
2018-08-23T01:59:20.570Z,975.07
2018-08-23T02:00:20.807Z,975.10
2018-08-23T02:01:21.051Z,975.07
2018-08-23T02:02:21.286Z,975.10
2018-08-23T02:03:21.530Z,975.04
2018-08-23T02:04:21.771Z,975.07
2018-08-23T02:05:22.011Z,975.08
2018-08-23T02:06:22.253Z,975.04
2018-08-23T02:07:22.512Z,975.03
2018-08-23T02:08:22.756Z,975.00
2018-08-23T02:09:22.987Z,975.03
2018-08-23T02:10:23.233Z,975.02
2018-08-23T02:11:23.452Z,974.97
2018-08-23T02:12:23.694Z,975.01
2018-08-23T02:13:23.931Z,975.05
2018-08-23T02:14:24.174Z,974.98
2018-08-23T02:15:24.418Z,975.01
2018-08-23T02:16:24.681Z,974.96
2018-08-23T02:17:24.930Z,974.97
2018-08-23T02:18:25.157Z,974.95
2018-08-23T02:19:25.423Z,974.91
2018-08-23T02:20:25.640Z,974.93
2018-08-23T02:21:25.880Z,974.95
2018-08-23T02:22:26.131Z,974.96
2018-08-23T02:23:26.373Z,974.95
2018-08-23T02:24:26.591Z,974.94
2018-08-23T02:25:26.848Z,974.98
2018-08-23T02:26:27.079Z,974.99
2018-08-23T02:27:27.308Z,974.95
2018-08-23T02:28:27.541Z,974.97
2018-08-23T02:29:27.777Z,974.95
2018-08-23T02:30:28.020Z,975.00
2018-08-23T02:31:28.271Z,974.98
2018-08-23T02:32:28.498Z,974.99
2018-08-23T02:33:28.740Z,974.97
2018-08-23T02:34:28.997Z,974.99
2018-08-23T02:35:29.214Z,975.01
2018-08-23T02:36:29.445Z,975.03
2018-08-23T02:37:29.704Z,974.98
2018-08-23T02:38:29.911Z,975.01
2018-08-23T02:39:30.170Z,974.97
2018-08-23T02:40:30.382Z,974.99
2018-08-23T02:41:30.618Z,974.96
2018-08-23T02:42:30.865Z,974.98
2018-08-23T02:43:31.088Z,974.95
2018-08-23T02:44:31.333Z,974.98
2018-08-23T02:45:31.556Z,974.95
2018-08-23T02:46:31.819Z,974.98
2018-08-23T02:47:32.040Z,975.01
2018-08-23T02:48:32.304Z,975.01
2018-08-23T02:49:32.530Z,975.03
2018-08-23T02:50:32.782Z,975.00
2018-08-23T02:51:33.017Z,974.98
2018-08-23T02:52:33.274Z,975.04
2018-08-23T02:53:33.504Z,975.02
2018-08-23T02:54:33.763Z,975.04
2018-08-23T02:55:34.025Z,975.03
2018-08-23T02:56:34.228Z,975.04
2018-08-23T02:57:34.496Z,975.02
2018-08-23T02:58:34.742Z,975.01
2018-08-23T02:59:34.947Z,975.03
2018-08-23T03:00:35.234Z,974.99
2018-08-23T03:01:35.413Z,975.00
2018-08-23T03:02:35.650Z,974.98
2018-08-23T03:03:35.911Z,975.00
2018-08-23T03:04:36.124Z,974.98
2018-08-23T03:05:36.371Z,974.97
2018-08-23T03:06:36.614Z,974.96
2018-08-23T03:07:36.846Z,974.98
2018-08-23T03:08:37.103Z,974.97
2018-08-23T03:09:37.310Z,974.94
2018-08-23T03:10:37.539Z,974.99
2018-08-23T03:11:37.781Z,974.99
2018-08-23T03:12:38.023Z,974.98
2018-08-23T03:13:38.262Z,974.96
2018-08-23T03:14:38.494Z,974.95
2018-08-23T03:15:38.740Z,974.97
2018-08-23T03:16:38.995Z,974.92
2018-08-23T03:17:39.208Z,974.93
2018-08-23T03:18:39.452Z,974.88
2018-08-23T03:19:39.698Z,974.90
2018-08-23T03:20:39.953Z,974.90
2018-08-23T03:21:40.189Z,974.91
2018-08-23T03:22:40.447Z,974.91
2018-08-23T03:23:40.693Z,974.88
2018-08-23T03:24:40.940Z,974.88
2018-08-23T03:25:41.188Z,974.91
2018-08-23T03:26:41.396Z,974.91
2018-08-23T03:27:41.637Z,974.90
2018-08-23T03:28:41.883Z,974.88
2018-08-23T03:29:42.125Z,974.84
2018-08-23T03:30:42.360Z,974.90
2018-08-23T03:31:42.613Z,974.87
2018-08-23T03:32:42.851Z,974.88
2018-08-23T03:33:43.070Z,974.91
2018-08-23T03:34:43.298Z,974.86
2018-08-23T03:35:43.573Z,974.83
2018-08-23T03:36:43.786Z,974.81
2018-08-23T03:37:44.060Z,974.80
2018-08-23T03:38:44.292Z,974.82
2018-08-23T03:39:44.513Z,974.83
2018-08-23T03:40:44.765Z,974.86
2018-08-23T03:41:45.179Z,974.83
2018-08-23T03:42:45.372Z,974.85
2018-08-23T03:43:45.613Z,974.80
2018-08-23T03:44:45.822Z,974.75
2018-08-23T03:45:46.096Z,974.80
2018-08-23T03:46:46.306Z,974.79
2018-08-23T03:47:46.562Z,974.79
2018-08-23T03:48:46.772Z,974.74
2018-08-23T03:49:47.010Z,974.78
2018-08-23T03:50:47.263Z,974.79
2018-08-23T03:51:47.498Z,974.83
2018-08-23T03:52:47.730Z,974.84
2018-08-23T03:53:47.952Z,974.85
2018-08-23T03:54:48.238Z,974.84
2018-08-23T03:55:48.438Z,974.81
2018-08-23T03:56:48.674Z,974.84
2018-08-23T03:57:48.908Z,974.83
2018-08-23T03:58:49.163Z,974.82
2018-08-23T03:59:49.383Z,974.76
2018-08-23T04:00:49.628Z,974.77
2018-08-23T04:01:49.845Z,974.76
2018-08-23T04:02:50.086Z,974.75
2018-08-23T04:03:50.311Z,974.74
2018-08-23T04:04:50.549Z,974.73
2018-08-23T04:05:50.794Z,974.74
2018-08-23T04:06:51.030Z,974.77
2018-08-23T04:07:51.272Z,974.76
2018-08-23T04:08:51.519Z,974.72
2018-08-23T04:09:51.753Z,974.73
2018-08-23T04:10:51.997Z,974.73
2018-08-23T04:11:52.238Z,974.73
2018-08-23T04:12:52.481Z,974.67
2018-08-23T04:13:52.722Z,974.67
2018-08-23T04:14:52.962Z,974.66
2018-08-23T04:15:53.204Z,974.69
2018-08-23T04:16:53.445Z,974.68
2018-08-23T04:17:53.688Z,974.73
2018-08-23T04:18:53.945Z,974.69
2018-08-23T04:19:54.198Z,974.71
2018-08-23T04:20:54.400Z,974.75
2018-08-23T04:21:54.640Z,974.77
2018-08-23T04:22:54.957Z,974.74
2018-08-23T04:23:55.120Z,974.72
2018-08-23T04:24:55.358Z,974.73
2018-08-23T04:25:55.591Z,974.74
2018-08-23T04:26:55.843Z,974.72
2018-08-23T04:27:56.071Z,974.66
2018-08-23T04:28:56.332Z,974.68
2018-08-23T04:29:56.541Z,974.68
2018-08-23T04:30:56.793Z,974.68
2018-08-23T04:31:57.012Z,974.68
2018-08-23T04:32:57.244Z,974.69
2018-08-23T04:33:57.494Z,974.71
2018-08-23T04:34:57.720Z,974.72
2018-08-23T04:35:57.941Z,974.72
2018-08-23T04:36:58.184Z,974.72
2018-08-23T04:37:58.411Z,974.73
2018-08-23T04:38:58.644Z,974.74
2018-08-23T04:39:58.909Z,974.74
2018-08-23T04:40:59.131Z,974.73
2018-08-23T04:41:59.365Z,974.75
2018-08-23T04:42:59.591Z,974.77
2018-08-23T04:43:59.829Z,974.75
2018-08-23T04:45:00.099Z,974.72
2018-08-23T04:46:00.329Z,974.71
2018-08-23T04:47:00.569Z,974.70
2018-08-23T04:48:00.804Z,974.69
2018-08-23T04:49:01.026Z,974.66
2018-08-23T04:50:01.272Z,974.64
2018-08-23T04:51:01.507Z,974.66
2018-08-23T04:52:01.754Z,974.69
2018-08-23T04:53:01.991Z,974.68
2018-08-23T04:54:02.231Z,974.69
2018-08-23T04:55:02.460Z,974.70
2018-08-23T04:56:02.700Z,974.68
2018-08-23T04:57:02.932Z,974.73
2018-08-23T04:58:03.179Z,974.72
2018-08-23T04:59:03.507Z,974.72
2018-08-23T05:00:03.672Z,974.72
2018-08-23T05:01:03.906Z,974.74
2018-08-23T05:02:04.163Z,974.74
2018-08-23T05:03:04.403Z,974.77
2018-08-23T05:04:04.666Z,974.75
2018-08-23T05:05:04.894Z,974.80
2018-08-23T05:06:14.019Z,974.75
2018-08-23T05:07:05.512Z,974.81
2018-08-23T05:08:06.388Z,974.78
2018-08-23T05:09:14.551Z,974.81
2018-08-23T05:10:14.147Z,974.82
2018-08-23T05:11:06.822Z,974.83
2018-08-23T05:12:07.066Z,974.82
2018-08-23T05:13:07.498Z,974.85
2018-08-23T05:14:07.615Z,974.84
2018-08-23T05:15:07.861Z,974.83
2018-08-23T05:16:08.107Z,974.83
2018-08-23T05:17:08.349Z,974.82
2018-08-23T05:18:08.591Z,974.81
2018-08-23T05:19:08.835Z,974.83
2018-08-23T05:20:09.077Z,974.87
2018-08-23T05:21:09.312Z,974.81
2018-08-23T05:22:09.557Z,974.85
2018-08-23T05:23:09.855Z,974.90
2018-08-23T05:24:10.044Z,974.85
2018-08-23T05:25:10.276Z,974.87
2018-08-23T05:26:10.536Z,974.88
2018-08-23T05:27:10.778Z,974.87
2018-08-23T05:28:11.029Z,974.87
2018-08-23T05:29:11.262Z,974.81
2018-08-23T05:30:11.506Z,974.79
2018-08-23T05:31:11.733Z,974.79
2018-08-23T05:32:11.985Z,974.76
2018-08-23T05:33:12.245Z,974.81
2018-08-23T05:34:12.442Z,974.80
2018-08-23T05:35:12.693Z,974.78
2018-08-23T05:36:12.934Z,974.79
2018-08-23T05:37:13.172Z,974.77
2018-08-23T05:38:13.388Z,974.73
2018-08-23T05:39:13.649Z,974.74
2018-08-23T05:40:13.900Z,974.75
2018-08-23T05:41:14.122Z,974.74
2018-08-23T05:42:14.378Z,974.78
2018-08-23T05:43:14.580Z,974.74
2018-08-23T05:44:14.835Z,974.75
2018-08-23T05:45:15.065Z,974.75
2018-08-23T05:46:15.312Z,974.72
2018-08-23T05:47:15.559Z,974.78
2018-08-23T05:48:15.820Z,974.74
2018-08-23T05:49:16.046Z,974.77
2018-08-23T05:50:16.294Z,974.81
2018-08-23T05:51:16.552Z,974.82
2018-08-23T05:52:16.780Z,974.79
2018-08-23T05:53:17.025Z,974.79
2018-08-23T05:54:17.260Z,974.73
2018-08-23T05:55:17.502Z,974.70
2018-08-23T05:56:17.746Z,974.67
2018-08-23T05:57:17.990Z,974.67
2018-08-23T05:58:18.239Z,974.69
2018-08-23T05:59:18.477Z,974.66
2018-08-23T06:00:18.720Z,974.68
2018-08-23T06:01:18.964Z,974.65
2018-08-23T06:02:19.211Z,974.65
2018-08-23T06:03:19.467Z,974.62
2018-08-23T06:04:19.692Z,974.63
2018-08-23T06:05:19.934Z,974.62
2018-08-23T06:06:20.175Z,974.61
2018-08-23T06:07:20.418Z,974.65
2018-08-23T06:08:20.703Z,974.67
2018-08-23T06:09:20.902Z,974.68
2018-08-23T06:10:21.139Z,974.65
2018-08-23T06:11:21.377Z,974.67
2018-08-23T06:12:21.619Z,974.69
2018-08-23T06:13:21.861Z,974.70
2018-08-23T06:14:22.105Z,974.68
2018-08-23T06:15:22.337Z,974.68
2018-08-23T06:16:22.587Z,974.72
2018-08-23T06:17:22.833Z,974.71
2018-08-23T06:18:23.075Z,974.70
2018-08-23T06:19:23.318Z,974.71
2018-08-23T06:20:23.557Z,974.71
2018-08-23T06:21:23.800Z,974.74
2018-08-23T06:22:24.049Z,974.75
2018-08-23T06:23:24.291Z,974.75
2018-08-23T06:24:24.537Z,974.75
2018-08-23T06:25:24.780Z,974.75
2018-08-23T06:26:25.025Z,974.80
2018-08-23T06:27:25.309Z,974.78
2018-08-23T06:28:25.519Z,974.77
2018-08-23T06:29:25.776Z,974.78
2018-08-23T06:30:25.998Z,974.78
2018-08-23T06:31:26.243Z,974.78
2018-08-23T06:32:26.489Z,974.77
2018-08-23T06:33:26.946Z,974.74
2018-08-23T06:34:26.968Z,974.72
2018-08-23T06:35:27.214Z,974.67
2018-08-23T06:36:27.455Z,974.69
2018-08-23T06:37:27.699Z,974.71
2018-08-23T06:38:27.944Z,974.76
2018-08-23T06:39:28.189Z,974.76
2018-08-23T06:40:28.435Z,974.74
2018-08-23T06:41:28.681Z,974.72
2018-08-23T06:42:28.925Z,974.72
2018-08-23T06:43:29.175Z,974.72
2018-08-23T06:44:29.424Z,974.68
2018-08-23T06:45:29.653Z,974.69
2018-08-23T06:46:29.908Z,974.70
2018-08-23T06:47:30.249Z,974.69
2018-08-23T06:48:30.492Z,974.68
2018-08-23T06:49:30.718Z,974.64
2018-08-23T06:50:30.958Z,974.65
2018-08-23T06:51:31.205Z,974.64
2018-08-23T06:52:31.461Z,974.63
2018-08-23T06:53:31.701Z,974.64
2018-08-23T06:54:31.949Z,974.63
2018-08-23T06:55:32.197Z,974.65
2018-08-23T06:56:32.463Z,974.64
2018-08-23T06:57:32.684Z,974.67
2018-08-23T06:58:32.931Z,974.66
2018-08-23T06:59:33.180Z,974.65
2018-08-23T07:00:33.427Z,974.64
2018-08-23T07:01:33.686Z,974.66
2018-08-23T07:02:33.926Z,974.64
2018-08-23T07:03:34.199Z,974.69
2018-08-23T07:04:34.432Z,974.65
2018-08-23T07:05:34.710Z,974.70
2018-08-23T07:06:34.952Z,974.68
2018-08-23T07:07:35.179Z,974.68
2018-08-23T07:08:35.429Z,974.68
2018-08-23T07:09:35.677Z,974.64
2018-08-23T07:10:35.928Z,974.65
2018-08-23T07:11:36.182Z,974.63
2018-08-23T07:12:36.426Z,974.61
2018-08-23T07:13:36.681Z,974.65
2018-08-23T07:14:36.926Z,974.64
2018-08-23T07:15:37.178Z,974.66
2018-08-23T07:16:37.427Z,974.68
2018-08-23T07:17:37.770Z,974.65
2018-08-23T07:18:37.949Z,974.69
2018-08-23T07:19:38.176Z,974.69
2018-08-23T07:20:38.427Z,974.73
2018-08-23T07:21:38.679Z,974.73
2018-08-23T07:22:38.950Z,974.76
2018-08-23T07:23:39.184Z,974.72
2018-08-23T07:24:39.433Z,974.73
2018-08-23T07:25:39.687Z,974.79
2018-08-23T07:26:39.971Z,974.80
2018-08-23T07:27:40.196Z,974.80
2018-08-23T07:28:40.453Z,974.80
2018-08-23T07:29:40.715Z,974.86
2018-08-23T07:30:40.960Z,974.85
2018-08-23T07:31:41.219Z,974.86
2018-08-23T07:32:41.469Z,974.86
2018-08-23T07:33:41.729Z,974.83
2018-08-23T07:34:41.980Z,974.87
2018-08-23T07:35:42.253Z,974.91
2018-08-23T07:36:42.482Z,974.90
2018-08-23T07:37:42.735Z,974.86
2018-08-23T07:38:42.988Z,974.89
2018-08-23T07:39:43.241Z,974.90
2018-08-23T07:40:43.492Z,974.91
2018-08-23T07:41:43.746Z,974.90
2018-08-23T07:42:43.998Z,974.92
2018-08-23T07:43:44.251Z,974.93
2018-08-23T07:44:44.508Z,974.83
2018-08-23T07:45:44.758Z,974.88
2018-08-23T07:46:45.008Z,974.85
2018-08-23T07:47:45.262Z,974.87
2018-08-23T07:48:45.515Z,974.89
2018-08-23T07:49:45.767Z,974.85
2018-08-23T07:50:46.019Z,974.91
2018-08-23T07:51:46.285Z,974.94
2018-08-23T07:52:46.632Z,974.91
2018-08-23T07:53:46.785Z,974.97
2018-08-23T07:54:47.071Z,974.93
2018-08-23T07:55:47.343Z,974.99
2018-08-23T07:56:47.597Z,974.96
2018-08-23T07:57:47.852Z,974.94
2018-08-23T07:58:48.100Z,975.00
2018-08-23T07:59:48.353Z,975.02
2018-08-23T08:00:48.606Z,975.02
2018-08-23T08:01:48.859Z,975.04
2018-08-23T08:02:49.113Z,975.03
2018-08-23T08:03:49.363Z,975.02
2018-08-23T08:04:49.629Z,975.04
2018-08-23T08:05:49.893Z,975.09
2018-08-23T08:06:50.153Z,975.09
2018-08-23T08:07:50.400Z,975.08
2018-08-23T08:08:50.652Z,975.12
2018-08-23T08:09:50.903Z,975.13
2018-08-23T08:10:51.159Z,975.16
2018-08-23T08:11:51.402Z,975.15
2018-08-23T08:12:51.660Z,975.19
2018-08-23T08:13:51.911Z,975.20
2018-08-23T08:14:52.200Z,975.19
2018-08-23T08:15:52.425Z,975.22
2018-08-23T08:16:52.672Z,975.13
2018-08-23T08:17:52.935Z,975.13
2018-08-23T08:18:53.193Z,975.14
2018-08-23T08:19:53.443Z,975.15
2018-08-23T08:20:53.737Z,975.20
2018-08-23T08:21:53.944Z,975.19
2018-08-23T08:22:54.201Z,975.27
2018-08-23T08:23:54.452Z,975.23
2018-08-23T08:24:54.704Z,975.25
2018-08-23T08:25:54.965Z,975.26
2018-08-23T08:26:55.214Z,975.33
2018-08-23T08:27:55.471Z,975.28
2018-08-23T08:28:55.725Z,975.32
2018-08-23T08:29:55.980Z,975.33
2018-08-23T08:30:56.234Z,975.41
2018-08-23T08:31:56.488Z,975.49
2018-08-23T08:32:56.742Z,975.61
2018-08-23T08:33:56.996Z,975.74
2018-08-23T08:34:57.250Z,975.95
2018-08-23T08:35:57.505Z,976.16
2018-08-23T08:36:57.761Z,976.29
2018-08-23T08:37:58.043Z,976.21
2018-08-23T08:38:58.302Z,975.96
2018-08-23T08:39:58.557Z,975.68
2018-08-23T08:40:58.816Z,975.60
2018-08-23T08:41:59.105Z,975.56
2018-08-23T08:42:59.325Z,975.53
2018-08-23T08:43:59.579Z,975.41
2018-08-23T08:44:59.840Z,975.37
2018-08-23T08:46:00.095Z,975.45
2018-08-23T08:47:00.350Z,975.43
2018-08-23T08:48:00.604Z,975.35
2018-08-23T08:49:00.871Z,975.34
2018-08-23T08:50:01.110Z,975.28
2018-08-23T08:51:01.366Z,975.28
2018-08-23T08:52:01.622Z,975.31
2018-08-23T08:53:01.878Z,975.32
2018-08-23T08:54:02.133Z,975.32
2018-08-23T08:55:02.393Z,975.34
2018-08-23T08:56:02.646Z,975.40
2018-08-23T08:57:02.932Z,975.40
2018-08-23T08:58:03.159Z,975.42
2018-08-23T08:59:03.416Z,975.36
2018-08-23T09:00:03.673Z,975.35
2018-08-23T09:01:03.920Z,975.28
2018-08-23T09:02:04.167Z,975.31
2018-08-23T09:03:04.440Z,975.33
2018-08-23T09:04:04.698Z,975.36
2018-08-23T09:05:04.953Z,975.40
2018-08-23T09:06:05.201Z,975.43
2018-08-23T09:07:05.456Z,975.43
2018-08-23T09:08:05.715Z,975.41
2018-08-23T09:09:05.971Z,975.48
2018-08-23T09:10:06.230Z,975.65
2018-08-23T09:11:06.492Z,975.91
2018-08-23T09:12:06.743Z,976.06
2018-08-23T09:13:06.999Z,976.05
2018-08-23T09:14:07.256Z,976.09
2018-08-23T09:15:07.513Z,976.18
2018-08-23T09:16:07.769Z,976.35
2018-08-23T09:17:08.018Z,976.51
2018-08-23T09:18:08.281Z,976.55
2018-08-23T09:19:08.538Z,976.45
2018-08-23T09:20:08.794Z,976.10
2018-08-23T09:21:09.049Z,975.62
2018-08-23T09:22:09.312Z,975.53
2018-08-23T09:23:09.568Z,975.37
2018-08-23T09:24:09.824Z,975.30
2018-08-23T09:25:10.108Z,975.19
2018-08-23T09:26:10.334Z,975.12
2018-08-23T09:27:10.617Z,975.07
2018-08-23T09:28:10.848Z,975.27
2018-08-23T09:29:11.105Z,975.67
2018-08-23T09:30:11.362Z,976.16
2018-08-23T09:31:11.619Z,976.20
2018-08-23T09:32:11.884Z,976.10
2018-08-23T09:33:12.134Z,975.97
2018-08-23T09:34:12.393Z,975.96
2018-08-23T09:35:12.683Z,976.03
2018-08-23T09:36:12.908Z,975.92
2018-08-23T09:37:13.162Z,975.77
2018-08-23T09:38:13.418Z,975.72
2018-08-23T09:39:13.674Z,975.63
2018-08-23T09:40:13.932Z,975.57
2018-08-23T09:41:14.190Z,975.42
2018-08-23T09:42:14.447Z,975.32
2018-08-23T09:43:14.705Z,975.31
2018-08-23T09:44:14.961Z,975.24
2018-08-23T09:45:15.222Z,975.13
2018-08-23T09:46:15.485Z,975.02
2018-08-23T09:47:15.735Z,975.02
2018-08-23T09:48:15.992Z,975.00
2018-08-23T09:49:16.248Z,974.95
2018-08-23T09:50:16.576Z,974.91
2018-08-23T09:51:16.798Z,974.81
2018-08-23T09:52:17.075Z,974.88
2018-08-23T09:53:17.277Z,974.86
2018-08-23T09:54:17.536Z,974.87
2018-08-23T09:55:17.790Z,974.82
2018-08-23T09:56:18.047Z,974.84
2018-08-23T09:57:18.304Z,974.83
2018-08-23T09:58:19.395Z,974.80
2018-08-23T09:59:18.965Z,974.70
2018-08-23T10:00:19.223Z,974.59
2018-08-23T10:01:19.480Z,974.70
2018-08-23T10:02:19.740Z,974.67
2018-08-23T10:03:19.997Z,974.75
2018-08-23T10:04:20.276Z,974.69
2018-08-23T10:05:20.512Z,974.80
2018-08-23T10:06:20.769Z,974.73
2018-08-23T10:07:21.027Z,974.83
2018-08-23T10:08:21.285Z,974.78
2018-08-23T10:09:21.541Z,974.83
2018-08-23T10:10:21.798Z,974.88
2018-08-23T10:11:22.081Z,975.00
2018-08-23T10:12:22.310Z,974.96
2018-08-23T10:13:22.568Z,975.02
2018-08-23T10:14:22.826Z,975.12
2018-08-23T10:15:23.084Z,975.09
2018-08-23T10:16:23.340Z,975.08
2018-08-23T10:17:23.597Z,975.08
2018-08-23T10:18:23.867Z,975.16
2018-08-23T10:19:24.111Z,974.75
2018-08-23T10:20:24.368Z,974.72
2018-08-23T10:21:24.627Z,974.72
2018-08-23T10:22:24.881Z,974.92
2018-08-23T10:23:25.138Z,974.98
2018-08-23T10:24:25.404Z,974.87
2018-08-23T10:25:25.652Z,974.83
2018-08-23T10:26:25.916Z,974.83
2018-08-23T10:27:26.167Z,974.84
2018-08-23T10:28:26.425Z,974.77
2018-08-23T10:29:26.679Z,974.74
2018-08-23T10:30:26.937Z,974.80
2018-08-23T10:31:27.194Z,974.83
2018-08-23T10:32:27.452Z,974.92
2018-08-23T10:33:27.710Z,974.93
2018-08-23T10:34:27.968Z,974.91
2018-08-23T10:35:28.227Z,974.96
2018-08-23T10:36:28.485Z,974.92
2018-08-23T10:37:28.741Z,974.89
2018-08-23T10:38:28.998Z,974.86
2018-08-23T10:39:29.255Z,974.58
2018-08-23T10:40:29.513Z,974.91
2018-08-23T10:41:29.770Z,975.09
2018-08-23T10:42:30.027Z,975.18
2018-08-23T10:43:30.290Z,975.24
2018-08-23T10:44:30.593Z,974.90
2018-08-23T10:45:30.800Z,975.22
2018-08-23T10:46:31.059Z,974.57
2018-08-23T10:47:31.316Z,975.22
2018-08-23T10:48:31.573Z,974.92
2018-08-23T10:49:31.831Z,975.30
2018-08-23T10:50:32.131Z,975.23
2018-08-23T10:51:32.347Z,975.24
2018-08-23T10:52:32.595Z,975.21
2018-08-23T10:53:32.851Z,975.19
2018-08-23T10:54:33.110Z,975.16
2018-08-23T10:55:33.369Z,975.16
2018-08-23T10:56:33.629Z,974.63
2018-08-23T10:57:33.886Z,975.14
2018-08-23T10:58:34.146Z,974.11
2018-08-23T10:59:34.405Z,974.09
2018-08-23T11:00:34.666Z,974.22
2018-08-23T11:01:34.928Z,974.26
2018-08-23T11:02:35.183Z,974.44
2018-08-23T11:03:35.442Z,974.05
2018-08-23T11:04:35.702Z,974.13
2018-08-23T11:05:35.960Z,974.23
2018-08-23T11:06:36.218Z,974.05
2018-08-23T11:07:36.476Z,973.96
2018-08-23T11:08:36.733Z,973.99
2018-08-23T11:09:37.046Z,973.86
2018-08-23T11:10:37.249Z,973.80
2018-08-23T11:11:37.508Z,973.86
2018-08-23T11:12:37.765Z,974.02
2018-08-23T11:13:38.024Z,974.21
2018-08-23T11:14:38.279Z,974.32
2018-08-23T11:15:38.537Z,974.23
2018-08-23T11:16:38.816Z,974.26
2018-08-23T11:17:39.053Z,974.23
2018-08-23T11:18:39.309Z,974.06
2018-08-23T11:19:39.569Z,974.31
2018-08-23T11:20:39.825Z,974.32
2018-08-23T11:21:40.089Z,974.29
2018-08-23T11:22:40.343Z,974.49
2018-08-23T11:23:40.602Z,974.46
2018-08-23T11:24:40.857Z,974.42
2018-08-23T11:25:41.117Z,974.35
2018-08-23T11:26:41.373Z,974.25
2018-08-23T11:27:41.629Z,974.23
2018-08-23T11:28:41.887Z,974.18
2018-08-23T11:29:42.260Z,974.24
2018-08-23T11:30:42.401Z,974.21
2018-08-23T11:31:42.659Z,974.13
2018-08-23T11:32:42.921Z,973.99
2018-08-23T11:33:43.179Z,973.87
2018-08-23T11:34:43.436Z,973.84
2018-08-23T11:35:43.697Z,973.92
2018-08-23T11:36:43.954Z,973.90
2018-08-23T11:37:44.216Z,973.87
2018-08-23T11:38:44.473Z,973.77
2018-08-23T11:39:44.726Z,973.80
2018-08-23T11:40:44.992Z,973.65
2018-08-23T11:41:45.249Z,973.87
2018-08-23T11:42:45.545Z,973.81
2018-08-23T11:43:45.778Z,973.84
2018-08-23T11:44:46.025Z,973.86
2018-08-23T11:45:46.288Z,973.70
2018-08-23T11:46:46.547Z,973.63
2018-08-23T11:47:46.804Z,973.66
2018-08-23T11:48:47.108Z,973.59
2018-08-23T11:49:47.326Z,973.79
2018-08-23T11:50:47.585Z,973.78
2018-08-23T11:51:47.847Z,973.39
2018-08-23T11:52:48.107Z,973.80
2018-08-23T11:53:48.425Z,973.56
2018-08-23T11:54:48.627Z,973.77
2018-08-23T11:55:48.884Z,973.70
2018-08-23T11:56:49.144Z,973.71
2018-08-23T11:57:49.424Z,973.66
2018-08-23T11:58:49.662Z,973.61
2018-08-23T11:59:49.924Z,973.66
2018-08-23T12:00:50.180Z,973.10
2018-08-23T12:01:50.439Z,973.18
2018-08-23T12:02:50.697Z,973.07
2018-08-23T12:03:50.956Z,973.21
2018-08-23T12:04:51.214Z,973.60
2018-08-23T12:05:51.473Z,973.63
2018-08-23T12:06:51.734Z,973.06
2018-08-23T12:07:51.992Z,973.42
2018-08-23T12:08:52.252Z,973.04
2018-08-23T12:09:52.520Z,973.20
2018-08-23T12:10:53.092Z,973.43
2018-08-23T12:11:53.323Z,973.49
2018-08-23T12:12:53.396Z,973.46
2018-08-23T12:13:53.673Z,973.28
2018-08-23T12:14:53.929Z,973.37
2018-08-23T12:15:54.189Z,973.28
2018-08-23T12:16:54.444Z,973.49
2018-08-23T12:17:54.699Z,973.45
2018-08-23T12:18:54.956Z,973.41
2018-08-23T12:19:55.214Z,973.18
2018-08-23T12:20:55.470Z,973.04
2018-08-23T12:21:55.729Z,973.23
2018-08-23T12:22:55.984Z,973.29
2018-08-23T12:23:56.243Z,973.31
2018-08-23T12:24:56.499Z,973.30
2018-08-23T12:25:56.916Z,973.24
2018-08-23T12:26:57.016Z,973.29
2018-08-23T12:27:57.274Z,973.23
2018-08-23T12:28:57.531Z,973.34
2018-08-23T12:29:57.787Z,973.41
2018-08-23T12:30:58.044Z,973.41
2018-08-23T12:31:58.300Z,973.38